createdAt,value
2019-03-31T00:00:38.261Z,82.70
2019-03-31T00:02:40.486Z,82.70
2019-03-31T00:04:43.014Z,85.00
2019-03-31T00:06:45.227Z,85.50
2019-03-31T00:08:47.800Z,85.20
2019-03-31T00:10:50.019Z,86.20
2019-03-31T00:12:52.241Z,84.80
2019-03-31T00:14:54.462Z,84.80
2019-03-31T00:16:56.680Z,86.40
2019-03-31T00:18:58.897Z,87.30
2019-03-31T00:21:01.449Z,88.20
2019-03-31T00:23:03.673Z,89.60
2019-03-31T00:25:05.911Z,88.30
2019-03-31T00:27:08.132Z,89.90
2019-03-31T00:29:10.348Z,89.00
2019-03-31T00:31:21.968Z,88.60
2019-03-31T00:33:16.714Z,88.60
2019-03-31T00:35:18.931Z,90.10
2019-03-31T00:37:21.161Z,91.80
2019-03-31T00:39:23.478Z,89.40
2019-03-31T00:41:25.698Z,87.90
2019-03-31T00:43:27.926Z,88.90
2019-03-31T00:45:30.142Z,90.60
2019-03-31T00:47:32.421Z,89.80
2019-03-31T00:49:34.938Z,91.30
2019-03-31T00:51:37.154Z,92.60
2019-03-31T00:53:39.378Z,92.70
2019-03-31T00:55:41.605Z,93.00
2019-03-31T00:57:43.832Z,90.80
2019-03-31T00:59:46.133Z,91.40
2019-03-31T01:01:51.166Z,92.60
2019-03-31T01:03:53.386Z,93.30
2019-03-31T01:05:55.601Z,93.90
2019-03-31T01:07:58.334Z,95.20
2019-03-31T01:10:00.553Z,95.10
2019-03-31T01:12:03.875Z,94.50
2019-03-31T01:14:06.167Z,94.80
2019-03-31T01:16:08.872Z,93.80
2019-03-31T01:18:11.092Z,94.80
2019-03-31T01:20:13.304Z,95.00
2019-03-31T01:22:15.511Z,95.00
2019-03-31T01:24:17.938Z,94.90
2019-03-31T01:26:21.126Z,94.00
2019-03-31T01:28:23.342Z,93.60
2019-03-31T01:30:25.653Z,92.60
2019-03-31T01:32:28.310Z,92.50
2019-03-31T01:34:30.521Z,91.00
2019-03-31T01:36:32.729Z,93.20
2019-03-31T01:38:34.945Z,92.50
2019-03-31T01:40:37.148Z,91.70
2019-03-31T01:42:39.354Z,92.80
2019-03-31T01:44:41.570Z,93.00
2019-03-31T01:46:43.768Z,92.90
2019-03-31T01:48:45.987Z,93.00
2019-03-31T01:50:48.202Z,91.50
2019-03-31T01:52:50.738Z,94.30
2019-03-31T01:54:52.965Z,97.20
2019-03-31T01:56:55.989Z,99.90
2019-03-31T01:58:58.530Z,99.90
2019-03-31T02:01:02.122Z,99.90
2019-03-31T02:03:04.597Z,99.90
2019-03-31T02:05:06.834Z,99.90
2019-03-31T02:07:09.844Z,99.90
2019-03-31T02:09:12.070Z,99.90
2019-03-31T02:11:14.285Z,99.90
2019-03-31T02:13:16.846Z,99.90
2019-03-31T02:15:19.069Z,99.90
2019-03-31T02:17:21.286Z,99.90
2019-03-31T02:19:23.558Z,99.90
2019-03-31T02:21:25.780Z,99.90
2019-03-31T02:23:27.990Z,99.90
2019-03-31T02:25:30.228Z,99.90
2019-03-31T02:27:32.424Z,99.90
2019-03-31T02:29:34.652Z,99.90
2019-03-31T02:31:36.857Z,99.90
2019-03-31T02:33:39.074Z,99.90
2019-03-31T02:35:41.291Z,99.90
2019-03-31T02:37:43.505Z,99.90
2019-03-31T02:39:46.001Z,99.90
2019-03-31T02:41:48.256Z,99.90
2019-03-31T02:43:50.755Z,99.90
2019-03-31T02:45:52.982Z,99.90
2019-03-31T02:47:55.194Z,99.90
2019-03-31T02:49:57.423Z,99.90
2019-03-31T02:51:59.741Z,99.90
2019-03-31T02:54:01.958Z,99.90
2019-03-31T02:56:04.180Z,99.90
2019-03-31T02:58:06.424Z,99.90
2019-03-31T03:00:08.662Z,99.90
2019-03-31T03:02:11.638Z,99.90
2019-03-31T03:04:14.054Z,99.90
2019-03-31T03:06:16.280Z,99.90
2019-03-31T03:08:19.075Z,99.90
2019-03-31T03:10:21.405Z,99.90
2019-03-31T03:12:23.698Z,99.90
2019-03-31T03:14:26.468Z,99.90
2019-03-31T03:16:28.694Z,99.90
2019-03-31T03:18:30.917Z,99.90
2019-03-31T03:20:33.147Z,99.90
2019-03-31T03:22:35.362Z,99.90
2019-03-31T03:24:37.591Z,99.90
2019-03-31T03:26:39.815Z,99.90
2019-03-31T03:28:42.538Z,99.90
2019-03-31T03:31:04.397Z,99.90
2019-03-31T03:33:17.163Z,99.90
2019-03-31T03:35:11.126Z,99.90
2019-03-31T03:37:13.734Z,99.90
2019-03-31T03:39:16.165Z,99.90
2019-03-31T03:41:18.958Z,99.90
2019-03-31T03:43:21.185Z,99.90
2019-03-31T03:45:23.416Z,99.90
2019-03-31T03:47:25.720Z,99.90
2019-03-31T03:49:27.942Z,99.90
2019-03-31T03:51:30.456Z,99.90
2019-03-31T03:53:32.670Z,99.90
2019-03-31T03:55:34.898Z,99.90
2019-03-31T03:57:37.125Z,99.90
2019-03-31T03:59:39.328Z,99.90
2019-03-31T04:01:41.551Z,99.90
2019-03-31T04:03:43.765Z,99.90
2019-03-31T04:05:46.005Z,99.90
2019-03-31T04:07:48.309Z,99.90
2019-03-31T04:09:50.529Z,99.90
2019-03-31T04:11:53.069Z,99.90
2019-03-31T04:13:55.808Z,99.90
2019-03-31T04:15:58.285Z,99.90
2019-03-31T04:18:00.516Z,99.90
2019-03-31T04:20:03.001Z,99.90
2019-03-31T04:22:05.226Z,99.90
2019-03-31T04:24:07.437Z,99.90
2019-03-31T04:26:09.666Z,99.90
2019-03-31T04:28:11.899Z,99.90
2019-03-31T04:30:14.138Z,99.90
2019-03-31T04:32:16.381Z,99.90
2019-03-31T04:34:18.691Z,99.90
2019-03-31T04:36:20.917Z,99.90
2019-03-31T04:38:23.564Z,99.90
2019-03-31T04:40:25.794Z,99.90
2019-03-31T04:42:28.013Z,99.90
2019-03-31T04:44:30.233Z,99.90
2019-03-31T04:46:32.463Z,99.90
2019-03-31T04:48:34.677Z,99.90
2019-03-31T04:50:36.922Z,99.90
2019-03-31T04:52:39.138Z,99.90
2019-03-31T04:54:41.374Z,99.90
2019-03-31T04:56:43.861Z,99.90
2019-03-31T04:58:46.078Z,99.90
2019-03-31T05:00:48.315Z,99.90
2019-03-31T05:02:50.527Z,99.90
2019-03-31T05:04:52.746Z,99.90
2019-03-31T05:06:54.972Z,99.90
2019-03-31T05:08:57.648Z,99.90
2019-03-31T05:10:59.874Z,99.90
2019-03-31T05:13:02.506Z,99.90
2019-03-31T05:15:06.037Z,99.90
2019-03-31T05:17:08.269Z,99.90
2019-03-31T05:19:10.482Z,99.90
2019-03-31T05:21:12.715Z,99.90
2019-03-31T05:23:14.926Z,99.90
2019-03-31T05:25:17.158Z,99.90
2019-03-31T05:27:19.377Z,99.90
2019-03-31T05:29:21.594Z,99.90
2019-03-31T05:31:23.818Z,99.90
2019-03-31T05:33:26.033Z,99.90
2019-03-31T05:35:28.244Z,99.90
2019-03-31T05:37:30.476Z,99.90
2019-03-31T05:39:32.970Z,99.90
2019-03-31T05:41:35.197Z,99.90
2019-03-31T05:43:37.410Z,99.90
2019-03-31T05:45:39.649Z,99.90
2019-03-31T05:47:41.878Z,99.90
2019-03-31T05:49:44.097Z,99.90
2019-03-31T05:51:46.312Z,99.90
2019-03-31T05:53:48.525Z,99.90
2019-03-31T05:55:50.742Z,99.90
2019-03-31T05:57:52.973Z,99.90
2019-03-31T05:59:55.177Z,99.90
2019-03-31T06:01:57.401Z,99.90
2019-03-31T06:03:59.894Z,99.90
2019-03-31T06:06:02.110Z,99.90
2019-03-31T06:08:04.363Z,99.90
2019-03-31T06:10:06.601Z,99.90
2019-03-31T06:12:08.830Z,99.90
2019-03-31T06:14:11.041Z,99.90
2019-03-31T06:16:13.252Z,99.90
2019-03-31T06:18:15.478Z,99.90
2019-03-31T06:20:17.701Z,99.90
2019-03-31T06:22:20.253Z,99.90
2019-03-31T06:24:22.469Z,99.90
2019-03-31T06:26:24.942Z,99.90
2019-03-31T06:28:27.173Z,99.90
2019-03-31T06:30:29.379Z,99.90
2019-03-31T06:32:31.600Z,99.90
2019-03-31T06:34:46.794Z,99.90
2019-03-31T06:36:37.982Z,99.90
2019-03-31T06:38:40.219Z,99.90
2019-03-31T06:40:44.459Z,99.90
2019-03-31T06:42:46.681Z,99.90
2019-03-31T06:44:48.894Z,99.90
2019-03-31T06:46:51.113Z,99.90
2019-03-31T06:48:53.569Z,99.90
2019-03-31T06:50:55.805Z,99.90
2019-03-31T06:52:58.038Z,99.90
2019-03-31T06:55:00.349Z,99.90
2019-03-31T06:57:02.901Z,99.90
2019-03-31T06:59:05.354Z,99.90
2019-03-31T07:01:07.922Z,99.90
2019-03-31T07:03:10.490Z,99.90
2019-03-31T07:05:12.716Z,99.90
2019-03-31T07:07:14.942Z,99.90
2019-03-31T07:09:17.148Z,99.20
2019-03-31T07:11:19.366Z,98.00
2019-03-31T07:13:21.594Z,96.20
2019-03-31T07:15:23.800Z,97.00
2019-03-31T07:17:27.068Z,97.40
2019-03-31T07:19:29.296Z,97.50
2019-03-31T07:21:31.504Z,97.20
2019-03-31T07:23:33.738Z,98.00
2019-03-31T07:25:37.279Z,98.50
2019-03-31T07:27:39.978Z,98.40
2019-03-31T07:29:42.198Z,99.00
2019-03-31T07:31:44.585Z,98.50
2019-03-31T07:33:47.123Z,97.70
2019-03-31T07:35:49.429Z,98.10
2019-03-31T07:37:51.665Z,97.20
2019-03-31T07:39:54.018Z,97.70
2019-03-31T07:41:56.618Z,98.20
2019-03-31T07:43:59.318Z,98.20
2019-03-31T07:46:01.606Z,98.70
2019-03-31T07:48:03.830Z,98.40
2019-03-31T07:50:07.002Z,98.80
2019-03-31T07:52:09.218Z,97.90
2019-03-31T07:54:11.433Z,98.10
2019-03-31T07:56:16.097Z,96.10
2019-03-31T07:58:17.809Z,95.60
2019-03-31T08:00:20.135Z,96.10
2019-03-31T08:02:22.461Z,93.20
2019-03-31T08:04:24.668Z,92.30
2019-03-31T08:06:26.886Z,91.80
2019-03-31T08:08:29.457Z,90.40
2019-03-31T08:10:31.953Z,87.50
2019-03-31T08:12:34.505Z,83.50
2019-03-31T08:14:36.990Z,82.90
2019-03-31T08:16:39.205Z,82.70
2019-03-31T08:18:41.430Z,81.20
2019-03-31T08:20:43.646Z,76.90
2019-03-31T08:22:45.881Z,74.50
2019-03-31T08:24:48.094Z,73.40
2019-03-31T08:26:50.304Z,73.90
2019-03-31T08:28:52.519Z,70.90
2019-03-31T08:30:55.004Z,73.60
2019-03-31T08:32:57.760Z,77.00
2019-03-31T08:35:00.095Z,73.90
2019-03-31T08:37:02.401Z,72.70
2019-03-31T08:39:06.553Z,69.00
2019-03-31T08:41:08.769Z,68.20
2019-03-31T08:43:10.990Z,71.90
2019-03-31T08:45:13.227Z,72.00
2019-03-31T08:47:15.441Z,74.00
2019-03-31T08:49:17.656Z,75.30
2019-03-31T08:51:19.877Z,78.90
2019-03-31T08:53:22.092Z,80.50
2019-03-31T08:55:24.327Z,79.30
2019-03-31T08:57:26.540Z,78.50
2019-03-31T08:59:28.768Z,75.40
2019-03-31T09:01:30.972Z,75.00
2019-03-31T09:03:33.199Z,79.30
2019-03-31T09:05:35.676Z,72.80
2019-03-31T09:07:41.599Z,71.10
2019-03-31T09:09:42.490Z,68.50
2019-03-31T09:11:44.706Z,66.60
2019-03-31T09:13:46.932Z,65.90
2019-03-31T09:15:49.145Z,61.70
2019-03-31T09:17:54.003Z,57.40
2019-03-31T09:19:55.494Z,57.80
2019-03-31T09:21:57.704Z,45.20
2019-03-31T09:23:59.916Z,33.40
2019-03-31T09:26:02.142Z,28.80
2019-03-31T09:28:04.370Z,23.40
2019-03-31T09:30:08.225Z,27.30
2019-03-31T09:32:10.428Z,26.70
2019-03-31T09:34:12.929Z,22.90
2019-03-31T09:36:16.820Z,22.80
2019-03-31T09:38:19.440Z,21.90
2019-03-31T09:40:21.661Z,21.90
2019-03-31T09:42:23.869Z,21.90
2019-03-31T09:44:26.098Z,24.00
2019-03-31T09:46:28.317Z,25.10
2019-03-31T09:48:30.528Z,21.20
2019-03-31T09:50:32.753Z,15.00
2019-03-31T09:52:34.964Z,18.10
2019-03-31T09:54:37.542Z,18.50
2019-03-31T09:56:39.765Z,17.10
2019-03-31T09:58:41.995Z,15.90
2019-03-31T10:00:45.772Z,12.90
2019-03-31T10:02:48.440Z,12.70
2019-03-31T10:04:50.666Z,6.90
2019-03-31T10:06:53.173Z,3.40
2019-03-31T10:08:55.418Z,1.00
2019-03-31T10:10:57.634Z,1.00
2019-03-31T10:12:59.861Z,1.00
2019-03-31T10:15:02.154Z,1.00
2019-03-31T10:17:04.370Z,1.00
2019-03-31T10:19:06.886Z,1.00
2019-03-31T10:21:09.105Z,1.00
2019-03-31T10:23:11.322Z,1.00
2019-03-31T10:25:13.666Z,1.00
2019-03-31T10:27:15.934Z,1.00
2019-03-31T10:29:18.701Z,1.00
2019-03-31T10:31:20.906Z,1.00
2019-03-31T10:33:23.116Z,1.00
2019-03-31T10:35:25.368Z,1.00
2019-03-31T10:37:27.587Z,1.00
2019-03-31T10:39:29.818Z,1.00
2019-03-31T10:41:32.040Z,1.00
2019-03-31T10:43:34.248Z,1.00
2019-03-31T10:45:36.473Z,1.00
2019-03-31T10:47:38.929Z,1.00
2019-03-31T10:49:41.490Z,1.00
2019-03-31T10:51:43.710Z,1.00
2019-03-31T10:53:45.917Z,1.00
2019-03-31T10:55:48.149Z,1.00
2019-03-31T10:57:50.371Z,1.00
2019-03-31T10:59:53.027Z,1.00
2019-03-31T11:01:55.622Z,1.00
2019-03-31T11:03:57.837Z,1.00
2019-03-31T11:06:00.069Z,1.00
2019-03-31T11:08:02.309Z,1.00
2019-03-31T11:10:04.594Z,1.00
2019-03-31T11:12:06.818Z,1.00
2019-03-31T11:14:09.625Z,1.00
2019-03-31T11:16:11.858Z,1.00
2019-03-31T11:18:14.078Z,1.00
2019-03-31T11:20:16.606Z,1.00
2019-03-31T11:22:35.138Z,1.00
2019-03-31T11:24:37.366Z,1.00
2019-03-31T11:26:39.581Z,1.00
2019-03-31T11:28:41.802Z,1.00
2019-03-31T11:30:44.028Z,1.00
2019-03-31T11:32:46.245Z,1.00
2019-03-31T11:34:48.469Z,1.00
2019-03-31T11:36:50.690Z,1.00
2019-03-31T11:38:53.215Z,1.00
2019-03-31T11:40:55.430Z,1.00
2019-03-31T11:42:57.643Z,1.00
2019-03-31T11:44:59.873Z,1.00
2019-03-31T11:47:02.077Z,1.00
2019-03-31T11:49:04.302Z,1.00
2019-03-31T11:51:06.529Z,1.00
2019-03-31T11:53:08.740Z,1.00
2019-03-31T11:55:11.157Z,1.00
2019-03-31T11:57:13.685Z,1.00
2019-03-31T11:59:16.253Z,1.00
2019-03-31T12:01:18.830Z,1.00
2019-03-31T12:03:21.054Z,1.00
2019-03-31T12:05:23.274Z,1.00
2019-03-31T12:07:28.085Z,1.00
2019-03-31T12:09:29.597Z,1.00
2019-03-31T12:11:31.826Z,1.00
2019-03-31T12:13:34.040Z,1.00
2019-03-31T12:15:36.265Z,1.00
2019-03-31T12:17:38.481Z,1.00
2019-03-31T12:19:40.689Z,1.00
2019-03-31T12:21:43.166Z,1.00
2019-03-31T12:23:49.526Z,1.00
2019-03-31T12:25:51.912Z,1.00
2019-03-31T12:27:54.177Z,1.00
2019-03-31T12:29:56.394Z,1.00
2019-03-31T12:31:58.722Z,1.00
2019-03-31T12:34:01.256Z,1.00
2019-03-31T12:36:04.653Z,1.00
2019-03-31T12:38:06.874Z,1.00
2019-03-31T12:40:15.566Z,1.00
2019-03-31T12:42:18.080Z,1.00
2019-03-31T12:44:20.298Z,1.00
2019-03-31T12:46:22.528Z,1.00
2019-03-31T12:48:25.005Z,1.00
2019-03-31T12:50:27.274Z,1.00
2019-03-31T12:52:29.494Z,1.00
2019-03-31T12:54:31.717Z,1.00
2019-03-31T12:56:33.945Z,1.00
2019-03-31T12:58:36.649Z,1.00
2019-03-31T13:00:38.866Z,1.00
2019-03-31T13:02:41.094Z,1.00
2019-03-31T13:04:43.653Z,1.00
2019-03-31T13:06:45.865Z,1.00
2019-03-31T13:08:48.371Z,1.00
2019-03-31T13:10:50.596Z,1.00
2019-03-31T13:12:52.796Z,1.00
2019-03-31T13:14:55.025Z,1.00
2019-03-31T13:16:57.269Z,1.00
2019-03-31T13:18:59.842Z,1.00
2019-03-31T13:21:02.390Z,1.00
2019-03-31T13:23:04.617Z,1.00
2019-03-31T13:25:06.849Z,1.00
2019-03-31T13:27:09.082Z,1.00
2019-03-31T13:29:11.638Z,1.00
2019-03-31T13:31:14.415Z,1.00
2019-03-31T13:33:16.638Z,1.00
2019-03-31T13:35:18.856Z,1.00
2019-03-31T13:37:21.435Z,1.00
2019-03-31T13:39:23.989Z,1.00
2019-03-31T13:41:26.292Z,1.00
2019-03-31T13:43:28.521Z,1.00
2019-03-31T13:45:30.745Z,1.00
2019-03-31T13:47:32.988Z,1.00
2019-03-31T13:49:35.196Z,1.00
2019-03-31T13:51:37.419Z,1.00
2019-03-31T13:53:39.629Z,1.00
2019-03-31T13:55:41.843Z,1.00
2019-03-31T13:57:44.904Z,1.00
2019-03-31T13:59:47.585Z,1.00
2019-03-31T14:01:50.253Z,1.00
2019-03-31T14:03:52.726Z,1.00
2019-03-31T14:05:54.941Z,1.00
2019-03-31T14:07:57.825Z,1.00
2019-03-31T14:10:00.037Z,1.00
2019-03-31T14:12:02.261Z,1.00
2019-03-31T14:14:04.469Z,1.00
2019-03-31T14:16:06.685Z,1.00
2019-03-31T14:18:09.209Z,1.00
2019-03-31T14:20:11.932Z,1.00
2019-03-31T14:22:14.493Z,1.00
2019-03-31T14:24:17.024Z,1.00
2019-03-31T14:26:19.236Z,1.00
2019-03-31T14:28:21.801Z,1.00
2019-03-31T14:30:24.017Z,1.00
2019-03-31T14:32:26.535Z,1.00
2019-03-31T14:34:28.744Z,1.00
2019-03-31T14:36:30.963Z,1.00
2019-03-31T14:38:40.031Z,1.00
2019-03-31T14:40:37.615Z,1.00
2019-03-31T14:42:39.933Z,1.00
2019-03-31T14:44:42.151Z,1.00
2019-03-31T14:46:44.358Z,1.00
2019-03-31T14:48:46.572Z,1.00
2019-03-31T14:50:48.780Z,1.00
2019-03-31T14:52:51.261Z,1.00
2019-03-31T14:54:55.902Z,1.00
2019-03-31T14:56:57.584Z,1.00
2019-03-31T14:58:59.817Z,1.00
2019-03-31T15:01:02.043Z,1.00
2019-03-31T15:03:04.271Z,1.00
2019-03-31T15:05:06.482Z,1.00
2019-03-31T15:07:08.702Z,1.00
2019-03-31T15:09:12.221Z,1.00
2019-03-31T15:11:14.526Z,1.00
2019-03-31T15:13:16.749Z,1.00
2019-03-31T15:15:18.962Z,1.00
2019-03-31T15:17:21.474Z,1.00
2019-03-31T15:19:23.695Z,1.00
2019-03-31T15:21:25.909Z,1.00
2019-03-31T15:23:29.483Z,1.00
2019-03-31T15:25:31.956Z,1.00
2019-03-31T15:27:34.181Z,1.00
2019-03-31T15:29:36.397Z,1.00
2019-03-31T15:31:38.610Z,1.00
2019-03-31T15:33:40.827Z,1.00
2019-03-31T15:35:43.029Z,1.00
2019-03-31T15:37:45.297Z,1.00
2019-03-31T15:39:47.501Z,1.00
2019-03-31T15:41:49.721Z,1.00
2019-03-31T15:43:51.949Z,1.00
2019-03-31T15:45:54.185Z,1.00
2019-03-31T15:47:56.405Z,1.00
2019-03-31T15:49:58.894Z,1.00
2019-03-31T15:52:01.183Z,1.00
2019-03-31T15:54:03.733Z,1.00
2019-03-31T15:56:05.954Z,1.00
2019-03-31T15:58:08.181Z,1.00
2019-03-31T16:00:10.951Z,1.00
2019-03-31T16:02:13.161Z,1.00
2019-03-31T16:04:15.381Z,1.00
2019-03-31T16:06:18.234Z,1.00
2019-03-31T16:08:19.906Z,1.00
2019-03-31T16:10:21.573Z,1.00
2019-03-31T16:12:23.247Z,1.00
2019-03-31T16:14:25.539Z,1.00
2019-03-31T16:16:30.499Z,1.00
2019-03-31T16:18:30.798Z,1.00
2019-03-31T16:20:32.470Z,1.00
2019-03-31T16:22:34.141Z,1.00
2019-03-31T16:24:38.717Z,1.00
2019-03-31T16:26:40.391Z,1.00
2019-03-31T16:28:42.075Z,1.00
2019-03-31T16:30:43.745Z,1.00
2019-03-31T16:32:45.486Z,1.00
2019-03-31T16:34:47.194Z,1.00
2019-03-31T16:36:48.940Z,1.00
2019-03-31T16:38:50.625Z,1.00
2019-03-31T16:40:52.288Z,1.00
2019-03-31T16:42:53.966Z,1.00
2019-03-31T16:44:58.396Z,1.00
2019-03-31T16:46:59.665Z,1.00
2019-03-31T16:49:01.818Z,1.00
2019-03-31T16:51:03.581Z,1.00
2019-03-31T16:53:05.550Z,1.00
2019-03-31T16:55:07.234Z,1.00
2019-03-31T16:57:08.994Z,1.00
2019-03-31T16:59:10.683Z,1.00
2019-03-31T17:01:12.358Z,1.00
2019-03-31T17:03:14.030Z,1.00
2019-03-31T17:05:22.033Z,1.00
2019-03-31T17:07:19.287Z,1.00
2019-03-31T17:09:20.982Z,1.00
2019-03-31T17:11:22.953Z,1.00
2019-03-31T17:13:24.630Z,1.00
2019-03-31T17:15:26.346Z,1.00
2019-03-31T17:17:28.028Z,1.00
2019-03-31T17:19:30.382Z,1.00
2019-03-31T17:21:32.394Z,1.00
2019-03-31T17:23:34.609Z,1.00
2019-03-31T17:25:36.301Z,1.00
2019-03-31T17:27:38.223Z,1.00
2019-03-31T17:29:39.908Z,1.00
2019-03-31T17:31:41.589Z,1.00
2019-03-31T17:33:43.268Z,1.00
2019-03-31T17:35:44.956Z,1.00
2019-03-31T17:37:46.625Z,1.00
2019-03-31T17:39:48.312Z,1.00
2019-03-31T17:41:49.980Z,1.00
2019-03-31T17:43:51.645Z,1.00
2019-03-31T17:45:53.309Z,1.00
2019-03-31T17:47:55.016Z,1.00
2019-03-31T17:49:57.006Z,1.00
2019-03-31T17:52:01.267Z,1.00
2019-03-31T17:54:05.917Z,1.00
2019-03-31T17:56:05.885Z,1.00
2019-03-31T17:58:07.568Z,1.00
2019-03-31T18:00:09.567Z,1.00
2019-03-31T18:02:11.240Z,1.00
2019-03-31T18:04:12.909Z,1.00
2019-03-31T18:06:14.755Z,1.00
2019-03-31T18:08:16.434Z,1.00
2019-03-31T18:10:21.314Z,1.00
2019-03-31T18:12:21.690Z,1.00
2019-03-31T18:14:23.378Z,1.00
2019-03-31T18:16:25.122Z,1.00
2019-03-31T18:18:27.090Z,1.00
2019-03-31T18:20:28.777Z,1.00
2019-03-31T18:22:30.770Z,1.00
2019-03-31T18:24:32.453Z,1.00
2019-03-31T18:26:34.150Z,1.00
2019-03-31T18:28:35.825Z,1.00
2019-03-31T18:30:37.514Z,1.00
2019-03-31T18:32:39.186Z,1.00
2019-03-31T18:34:40.852Z,1.00
2019-03-31T18:36:42.528Z,1.00
2019-03-31T18:38:44.214Z,1.00
2019-03-31T18:40:45.913Z,1.00
2019-03-31T18:42:47.589Z,1.00
2019-03-31T18:44:49.306Z,1.00
2019-03-31T18:46:50.985Z,1.00
2019-03-31T18:48:52.660Z,1.00
2019-03-31T18:50:54.346Z,1.00
2019-03-31T18:52:56.022Z,1.00
2019-03-31T18:55:04.914Z,1.00
2019-03-31T18:57:44.584Z,1.00
2019-03-31T19:00:04.376Z,1.00
2019-03-31T19:02:25.209Z,1.00
2019-03-31T19:04:44.812Z,1.00
2019-03-31T19:07:14.858Z,1.00
2019-03-31T19:09:54.248Z,1.00
2019-03-31T19:12:20.607Z,1.00
2019-03-31T19:14:47.564Z,1.20
2019-03-31T19:17:11.568Z,1.00
2019-03-31T19:19:23.486Z,1.00
2019-03-31T19:21:52.292Z,1.00
2019-03-31T19:24:19.450Z,1.00
2019-03-31T19:26:48.309Z,1.00
2019-03-31T19:29:01.250Z,1.00
2019-03-31T19:31:21.325Z,1.00
2019-03-31T19:33:30.779Z,1.00
2019-03-31T19:35:54.753Z,1.00
2019-03-31T19:38:07.578Z,1.00
2019-03-31T19:40:44.110Z,1.00
2019-03-31T19:43:08.241Z,1.00
2019-03-31T19:45:32.213Z,1.00
2019-03-31T19:47:43.881Z,1.00
2019-03-31T19:49:51.765Z,1.00
2019-03-31T19:52:28.216Z,1.00
2019-03-31T19:54:37.763Z,1.00
2019-03-31T19:56:52.030Z,1.00
2019-03-31T19:59:11.817Z,1.00
2019-03-31T20:01:37.100Z,1.00
2019-03-31T20:03:47.149Z,1.00
2019-03-31T20:06:07.338Z,1.00
2019-03-31T20:08:31.488Z,2.50
2019-03-31T20:10:40.235Z,2.00
2019-03-31T20:12:49.368Z,3.30
2019-03-31T20:15:37.613Z,1.70
2019-03-31T20:17:48.486Z,3.20
2019-03-31T20:20:08.370Z,2.00
2019-03-31T20:22:32.581Z,2.10
2019-03-31T20:24:47.294Z,3.10
2019-03-31T20:27:05.744Z,2.90
2019-03-31T20:29:27.110Z,2.20
2019-03-31T20:31:44.789Z,3.90
2019-03-31T20:34:05.074Z,3.00
2019-03-31T20:36:22.450Z,3.50
2019-03-31T20:38:36.431Z,4.10
2019-03-31T20:40:47.288Z,5.60
2019-03-31T20:43:01.480Z,7.30
2019-03-31T20:45:04.097Z,7.20
2019-03-31T20:47:05.795Z,9.10
2019-03-31T20:49:07.470Z,8.20
2019-03-31T20:51:09.157Z,9.40
2019-03-31T20:53:10.841Z,9.00
2019-03-31T20:55:16.449Z,10.70
2019-03-31T20:57:16.381Z,10.80
2019-03-31T20:59:18.057Z,9.80
2019-03-31T21:01:19.783Z,10.70
2019-03-31T21:03:21.534Z,12.10
2019-03-31T21:05:23.201Z,11.00
2019-03-31T21:07:24.890Z,11.10
2019-03-31T21:09:27.122Z,11.90
2019-03-31T21:11:28.790Z,11.30
2019-03-31T21:13:30.486Z,12.90
2019-03-31T21:15:32.262Z,14.10
2019-03-31T21:17:33.941Z,11.40
2019-03-31T21:19:35.639Z,13.40
2019-03-31T21:21:37.317Z,14.10
2019-03-31T21:23:39.032Z,14.10
2019-03-31T21:25:40.739Z,14.10
2019-03-31T21:27:42.460Z,14.90
2019-03-31T21:29:44.270Z,14.10
2019-03-31T21:31:45.948Z,15.20
2019-03-31T21:33:47.681Z,17.00
2019-03-31T21:35:49.389Z,14.30
2019-03-31T21:37:51.593Z,15.80
2019-03-31T21:39:53.264Z,17.70
2019-03-31T21:41:54.934Z,15.10
2019-03-31T21:43:56.614Z,15.10
2019-03-31T21:45:58.360Z,12.90
2019-03-31T21:48:00.050Z,14.00
2019-03-31T21:50:01.739Z,15.20
2019-03-31T21:52:03.410Z,13.30
2019-03-31T21:54:05.090Z,15.10
2019-03-31T21:56:06.770Z,16.80
2019-03-31T21:58:08.476Z,16.30
2019-03-31T22:00:10.177Z,16.90
2019-03-31T22:02:11.853Z,15.80
2019-03-31T22:04:13.545Z,19.00
2019-03-31T22:06:15.213Z,20.10
2019-03-31T22:08:16.892Z,19.10
2019-03-31T22:10:18.567Z,18.80
2019-03-31T22:12:20.242Z,19.00
2019-03-31T22:14:21.930Z,20.20
2019-03-31T22:16:23.610Z,21.70
2019-03-31T22:18:25.301Z,19.20
2019-03-31T22:20:26.986Z,23.80
2019-03-31T22:22:28.674Z,25.10
2019-03-31T22:24:30.354Z,22.30
2019-03-31T22:26:32.034Z,22.30
2019-03-31T22:28:33.742Z,24.80
2019-03-31T22:30:35.496Z,26.20
2019-03-31T22:32:37.205Z,25.80
2019-03-31T22:34:38.885Z,24.30
2019-03-31T22:36:40.564Z,23.20
2019-03-31T22:38:42.553Z,22.90
2019-03-31T22:40:44.223Z,26.90
2019-03-31T22:42:46.177Z,28.20
2019-03-31T22:44:47.849Z,28.60
2019-03-31T22:46:54.543Z,30.40
2019-03-31T22:48:53.118Z,30.00
2019-03-31T22:50:54.793Z,28.40
2019-03-31T22:52:56.484Z,29.90
2019-03-31T22:54:58.161Z,34.20
2019-03-31T22:56:59.849Z,37.00
2019-03-31T22:59:01.574Z,33.40
2019-03-31T23:01:03.576Z,30.00
2019-03-31T23:03:05.262Z,33.00
2019-03-31T23:05:06.942Z,34.50
2019-03-31T23:07:08.626Z,35.10
2019-03-31T23:09:10.614Z,34.40
2019-03-31T23:11:12.285Z,35.30
2019-03-31T23:13:14.330Z,35.20
2019-03-31T23:15:16.087Z,35.30
2019-03-31T23:17:17.873Z,36.40
2019-03-31T23:19:19.822Z,37.90
2019-03-31T23:21:21.488Z,40.90
2019-03-31T23:23:23.502Z,43.10
2019-03-31T23:25:25.181Z,44.40
2019-03-31T23:27:27.178Z,46.20
2019-03-31T23:29:28.869Z,47.80
2019-03-31T23:31:30.547Z,46.10
2019-03-31T23:33:32.238Z,46.10
2019-03-31T23:35:34.233Z,46.80
2019-03-31T23:37:35.902Z,42.00
2019-03-31T23:39:37.602Z,38.80
2019-03-31T23:41:39.274Z,45.50
2019-03-31T23:43:40.953Z,48.50
2019-03-31T23:45:42.631Z,47.90
2019-03-31T23:47:44.406Z,47.60
2019-03-31T23:49:46.410Z,48.70
2019-03-31T23:51:48.080Z,52.40
2019-03-31T23:53:49.757Z,50.30
2019-03-31T23:55:51.436Z,49.10
2019-03-31T23:57:53.135Z,48.80
2019-03-31T23:59:54.858Z,48.00
